1995 AGNES (1995106S09144)


On this page: IBTrACS data - Map and Plots - Positions - Intensities - Original source data

Summary

Start Apr 15
End Apr 23
Basin SP
LMI 110 kt
Sources jtwc_sh
bom
neumann
In WMO? Yes
Previous storm 1995 HSK2195 (SP)
Previous in basin 1995 HSK2195 (SP)
Concurrent storms 1995 AGNES (SP)
1995 CHUCK (WP)
Next in basin Missing
Next storm 1995 CHUCK (WP)

top of page IBTrACS Data: File Access

top of page HURSAT Data: File Access

Image of storm

top of page Plots:

Map of storm track will not appear if FTP is down
Time series of cyclone Maximum Sustained Wind will not appear if FTP is down
Time series of cyclone Minimum Central Pressure will not appear if FTP is down

top of page Track Data:Position

jtwc_sh bom neumann
Date Lat Lon Lat Lon Lat Lon
1995-04-15 12:00:00 -9.0 143.5 -9.0 143.5
1995-04-15 18:00:00 -9.6 143.9 -9.6 143.9
1995-04-16 00:00:00 -10.1 144.4 -10.1 144.4
1995-04-16 06:00:00 -10.5 145.0 -10.5 145.0
1995-04-16 12:00:00 -10.8 145.6 -10.8 145.6
1995-04-16 18:00:00 -11.2 146.3 -11.3 146.7 -11.2 146.3
1995-04-17 00:00:00 -11.5 147.0 -11.8 147.4 -11.5 147.0
1995-04-17 06:00:00 -11.8 147.5 -12.1 147.6 -11.8 147.5
1995-04-17 12:00:00 -12.1 147.9 -12.3 147.8 -12.1 147.9
1995-04-17 18:00:00 -12.5 148.0 -12.5 147.9 -12.5 148.0
1995-04-18 00:00:00 -12.7 148.0 -12.8 148.1 -12.7 148.0
1995-04-18 06:00:00 -12.8 147.9 -13.0 148.1 -12.8 147.9
1995-04-18 12:00:00 -12.8 147.8 -13.1 147.8 -12.8 147.8
1995-04-18 18:00:00 -12.9 147.8 -13.0 147.7 -12.9 147.8
1995-04-19 00:00:00 -12.9 147.7 -12.8 147.6 -12.9 147.7
1995-04-19 06:00:00 -13.0 147.7 -12.9 147.6 -13.0 147.7
1995-04-19 12:00:00 -13.0 147.6 -13.1 147.6 -13.0 147.6
1995-04-19 18:00:00 -13.0 147.5 -13.1 147.6 -13.0 147.5
1995-04-20 00:00:00 -13.0 147.4 -13.1 147.6 -13.0 147.4
1995-04-20 06:00:00 -12.9 147.4 -13.1 147.6 -12.9 147.4
1995-04-20 12:00:00 -12.8 147.5 -13.1 147.6 -12.8 147.5
1995-04-20 18:00:00 -12.6 147.6 -12.6 147.7 -12.6 147.6
1995-04-21 00:00:00 -12.3 147.8 -12.1 147.8 -12.3 147.8
1995-04-21 06:00:00 -11.9 148.0 -11.8 147.9 -11.9 148.0
1995-04-21 12:00:00 -11.5 148.1 -11.6 148.1 -11.5 148.1
jtwc_sh bom neumann
1995-04-21 18:00:00 -11.1 148.0 -11.1 148.1 -11.1 148.0
1995-04-22 00:00:00 -10.8 147.8 -10.8 147.8 -10.8 147.8
1995-04-22 06:00:00 -10.4 147.5 -10.5 147.5 -10.4 147.5
1995-04-22 12:00:00 -10.0 147.1 -10.1 147.1 -10.0 147.1
1995-04-22 18:00:00 -9.6 146.6 -9.6 146.6
1995-04-23 00:00:00 -9.2 146.2 -9.2 146.2
1995-04-23 06:00:00 -8.9 145.8 -8.9 145.8
1995-04-23 12:00:00 -8.6 145.5 -8.6 145.5

top of pageTrack Data:Intensity

jtwc_sh bom neumann
Date Wind Pres Wind Pres Wind Pres
1995-04-15 12:00:00 15. 15.
1995-04-15 18:00:00 15. 15.
1995-04-16 00:00:00 20. 20.
1995-04-16 06:00:00 20. 20.
1995-04-16 12:00:00 25. 25.
1995-04-16 18:00:00 25. 35. 995. 25.
1995-04-17 00:00:00 30. 41. 990. 30.
1995-04-17 06:00:00 35. 51. 985. 35.
1995-04-17 12:00:00 40. 60. 975. 40.
1995-04-17 18:00:00 50. 60. 975. 50.
1995-04-18 00:00:00 60. 64. 970. 60.
1995-04-18 06:00:00 75. 80. 960. 75.
1995-04-18 12:00:00 90. 89. 945. 90.
1995-04-18 18:00:00 105. 89. 945. 105.
1995-04-19 00:00:00 110. 89. 945. 110.
1995-04-19 06:00:00 105. 89. 945. 105.
1995-04-19 12:00:00 100. 80. 955. 100.
1995-04-19 18:00:00 95. 80. 955. 95.
1995-04-20 00:00:00 90. 70. 970. 90.
1995-04-20 06:00:00 85. 70. 970. 85.
1995-04-20 12:00:00 75. 70. 970. 75.
1995-04-20 18:00:00 65. 60. 975. 65.
1995-04-21 00:00:00 60. 54. 980. 60.
1995-04-21 06:00:00 55. 51. 985. 55.
1995-04-21 12:00:00 50. 51. 985. 50.
jtwc_sh bom neumann
1995-04-21 18:00:00 45. 51. 985. 45.
1995-04-22 00:00:00 40. 51. 985. 40.
1995-04-22 06:00:00 35. 41. 990. 35.
1995-04-22 12:00:00 30. 35. 995. 30.
1995-04-22 18:00:00 30. 30.
1995-04-23 00:00:00 25. 25.
1995-04-23 06:00:00 25. 25.
1995-04-23 12:00:00 20. 20.

top of page Links to source data

Source Source file Format
jtwc_sh bsh221995.txt ATCF
bom Newcyclonedatabase-08repair.csv:Line=17282:AGNES CSV file (from Excel file)
neumann tracks.sh:Storm=1036:AGNES:BSH221995:JTWC&BM?? HURDAT